Flight Track Log - Related Links

Times and Time Zones

All times are in EDT time to prevent confusion due to time zone crossing. See the AAL832 flight status page for this flight to view local times or setup timezone preferences in your user account.

Time Position Orientation Groundspeed Altitude Reporting Facility
EDT Latitude Longitude Course Direction KTS MPH feet Rate Location/Type
Tue 12:34:26 PM 33.9350 -118.4300 264° West 179 206 1,500  Level FlightAware ADS-B
Tue 12:34:50 PM 33.9330 -118.4590 265° West 222 255 1,900 1,650 Climbing FlightAware ADS-B
Tue 12:35:06 PM 33.9280 -118.4800 254° West 243 280 2,600 2,667 Climbing FlightAware ADS-B
Tue 12:35:26 PM 33.9210 -118.5040 251° West 250 288 3,500 2,700 Climbing FlightAware ADS-B
Tue 12:35:46 PM 33.9120 -118.5310 248° West 261 300 4,400 3,375 Climbing FlightAware ADS-B
Tue 12:35:58 PM 33.9040 -118.5460 237° Southwest 254 292 5,300 3,900 Climbing FlightAware ADS-B
Tue 12:36:06 PM 33.8980 -118.5530 224° Southwest 246 283 5,700 3,500 Climbing FlightAware ADS-B
Tue 12:36:10 PM 33.8930 -118.5570 214° Southwest 245 282 6,000 2,571 Climbing FlightAware ADS-B
Tue 12:36:20 PM 33.8840 -118.5600 195° South 245 282 6,300 2,400 Climbing FlightAware ADS-B
Tue 12:36:40 PM 33.8630 -118.5570 173° South 256 295 7,200 2,914 Climbing FlightAware ADS-B
Tue 12:36:55 PM 33.8490 -118.5390 133° Southeast 261 300 8,000 3,000 Climbing FlightAware ADS-B
Tue 12:37:00 PM 33.8470 -118.5330 112° Southeast 267 307 8,200 2,182 Climbing FlightAware ADS-B
Tue 12:37:06 PM 33.8460 -118.5260 100° East 269 310 8,400 2,600 Climbing FlightAware ADS-B
Tue 12:37:30 PM 33.8540 -118.4910 75° East 282 325 9,500 2,690 Climbing FlightAware ADS-B
Tue 12:37:35 PM 33.8600 -118.4830 48° Northeast 290 334 9,700 1,500 Climbing FlightAware ADS-B
Tue 12:37:50 PM 33.8750 -118.4690 38° Northeast 311 358 10,000 1,200 Climbing FlightAware ADS-B
Tue 12:38:25 PM 33.9240 -118.4370 28° Northeast 355 409 10,700 1,440 Climbing FlightAware ADS-B
Tue 12:38:40 PM 33.9430 -118.4170 41° Northeast 364 419 11,200 2,667 Climbing FlightAware ADS-B
Tue 12:39:10 PM 33.9710 -118.3660 56° Northeast 363 418 12,700 2,704 Climbing FlightAware ADS-B
Tue 12:39:51 PM 34.0080 -118.3000 56° Northeast 372 428 14,400 2,560 Climbing FlightAware ADS-B
Tue 12:40:25 PM 34.0440 -118.2370 55° Northeast 384 442 15,900 2,400 Climbing FlightAware ADS-B
Tue 12:40:56 PM 34.0730 -118.1850 56° Northeast 395 455 17,000 2,261 Climbing FlightAware ADS-B
Tue 12:41:34 PM 34.1150 -118.1120 55° Northeast 405 466 18,500 2,514 Climbing FlightAware ADS-B
Tue 12:42:10 PM 34.1530 -118.0440 56° Northeast 408 470 20,100 2,486 Climbing FlightAware ADS-B
Tue 12:42:44 PM 34.1880 -117.9820 56° Northeast 410 472 21,400 2,229 Climbing FlightAware ADS-B
Tue 12:43:20 PM 34.2280 -117.9110 56° Northeast 416 479 22,700 2,053 Climbing FlightAware ADS-B
Tue 12:44:00 PM 34.2710 -117.8340 56° Northeast 416 479 24,000 1,950 Climbing FlightAware ADS-B
Tue 12:44:40 PM 34.3200 -117.7570 52° Northeast 432 497 25,300 1,750 Climbing FlightAware ADS-B
Tue 12:45:12 PM 34.3620 -117.6970 50° Northeast 440 506 26,100 1,254 Climbing FlightAware ADS-B
Tue 12:45:47 PM 34.4030 -117.6400 49° Northeast 447 514 26,700 1,308 Climbing FlightAware ADS-B
Tue 12:46:30 PM 34.4670 -117.5490 50° Northeast 461 531 27,800 1,443 Climbing FlightAware ADS-B
Tue 12:47:06 PM 34.5180 -117.4760 50° Northeast 468 539 28,600 1,333 Climbing FlightAware ADS-B
Tue 12:47:42 PM 34.5680 -117.4030 50° Northeast 472 543 29,400 1,588 Climbing FlightAware ADS-B
Tue 12:48:14 PM 34.6130 -117.3390 49° Northeast 470 541 30,400 1,881 Climbing FlightAware ADS-B
Tue 12:48:49 PM 34.6610 -117.2690 50° Northeast 464 534 31,500 1,676 Climbing FlightAware ADS-B
Tue 12:49:22 PM 34.7070 -117.2030 50° Northeast 462 532 32,300 1,437 Climbing FlightAware ADS-B
Tue 12:50:00 PM 34.7590 -117.1280 50° Northeast 461 531 33,200 1,417 Climbing FlightAware ADS-B
Tue 12:50:34 PM 34.8050 -117.0610 50° Northeast 460 529 34,000 1,371 Climbing FlightAware ADS-B
Tue 12:51:10 PM 34.8540 -116.9900 50° Northeast 457 526 34,800 649 Climbing FlightAware ADS-B
Tue 12:51:48 PM 34.8980 -116.9260 50° Northeast 457 526 34,800 1,091 Level FlightAware ADS-B
Tue 12:52:16 PM 34.9420 -116.8620 50° Northeast 494 568 36,000 1,217 Climbing FlightAware ADS-B
Tue 12:52:57 PM 34.9870 -116.7950 51° Northeast 455 524 36,200 800 Climbing FlightAware ADS-B
Tue 12:53:31 PM 35.0420 -116.7150 50° Northeast 452 520 37,000 727 Climbing FlightAware ADS-B
Tue 12:54:03 PM 35.0840 -116.6530 50° Northeast 450 518 37,000  Level FlightAware ADS-B
Tue 12:54:41 PM 35.1280 -116.5900 49° Northeast 450 518 37,000  Level FlightAware ADS-B
Tue 12:55:30 PM 35.1920 -116.4950 50° Northeast 448 516 37,000  Level FlightAware ADS-B
Tue 12:56:06 PM 35.2330 -116.4350 50° Northeast 448 516 37,000  Level FlightAware ADS-B
Tue 12:56:42 PM 35.2740 -116.3760 50° Northeast 448 516 37,000  Level FlightAware ADS-B
Tue 12:57:18 PM 35.3140 -116.3160 51° Northeast 448 516 37,000  Level FlightAware ADS-B
Tue 12:57:54 PM 35.3550 -116.2570 50° Northeast 448 516 37,000  Level FlightAware ADS-B
Tue 12:58:33 PM 35.4440 -116.1210 51° Northeast 449 517 37,000  Level FlightAware ADS-B
Tue 12:59:05 PM 35.4860 -116.0580 51° Northeast 450 518 37,000  Level FlightAware ADS-B
Tue 12:59:42 PM 35.5330 -115.9870 51° Northeast 451 519 37,000  Level FlightAware ADS-B
Tue 01:00:19 PM 35.5810 -115.9160 50° Northeast 452 520 37,000  Level FlightAware ADS-B
Tue 01:00:51 PM 35.6260 -115.8490 50° Northeast 452 520 37,000  Level FlightAware ADS-B
Tue 01:01:27 PM 35.6740 -115.7770 51° Northeast 452 520 37,000  Level FlightAware ADS-B
Tue 01:02:03 PM 35.7210 -115.7050 51° Northeast 452 520 37,000  Level FlightAware ADS-B
Tue 01:02:35 PM 35.7630 -115.6410 51° Northeast 452 520 37,000  Level FlightAware ADS-B
Tue 01:03:11 PM 35.8110 -115.5700 50° Northeast 454 522 37,000  Level FlightAware ADS-B
Tue 01:03:47 PM 35.8590 -115.4960 51° Northeast 454 522 37,000  Level FlightAware ADS-B
Tue 01:04:24 PM 35.9070 -115.4240 51° Northeast 455 524 37,000  Level FlightAware ADS-B
Tue 01:04:55 PM 35.9490 -115.3600 51° Northeast 457 526 37,000  Level FlightAware ADS-B
Tue 01:05:27 PM 35.9920 -115.2950 51° Northeast 457 526 37,000  Level FlightAware ADS-B
Tue 01:06:03 PM 36.0390 -115.2220 51° Northeast 459 528 37,000  Level FlightAware ADS-B
Tue 01:06:40 PM 36.0870 -115.1440 53° Northeast 458 527 37,000  Level FlightAware ADS-B
Tue 01:07:18 PM 36.1270 -115.0600 59° Northeast 458 527 37,000  Level FlightAware ADS-B
Tue 01:07:54 PM 36.1650 -114.9790 60° Northeast 458 527 37,000  Level FlightAware ADS-B
Tue 01:08:23 PM 36.1940 -114.9150 61° Northeast 458 527 37,000  Level FlightAware ADS-B
Tue 01:08:58 PM 36.2340 -114.8310 59° Northeast 459 528 37,000  Level FlightAware ADS-B
Tue 01:09:38 PM 36.2740 -114.7440 60° Northeast 459 528 37,000  Level FlightAware ADS-B
Tue 01:10:12 PM 36.3110 -114.6640 60° Northeast 460 529 37,000  Level FlightAware ADS-B
Tue 01:10:48 PM 36.3490 -114.5830 60° Northeast 461 531 37,000  Level FlightAware ADS-B
Tue 01:11:22 PM 36.3840 -114.5070 60° Northeast 462 532 37,000  Level FlightAware ADS-B
Tue 01:11:56 PM 36.4220 -114.4260 60° Northeast 463 533 37,000  Level FlightAware ADS-B
Tue 01:12:32 PM 36.4600 -114.3420 61° Northeast 464 534 37,000  Level FlightAware ADS-B
Tue 01:13:05 PM 36.4940 -114.2680 60° Northeast 465 535 37,000  Level FlightAware ADS-B
Tue 01:13:40 PM 36.5320 -114.1860 60° Northeast 467 537 37,000  Level FlightAware ADS-B
Tue 01:14:18 PM 36.5740 -114.0940 60° Northeast 465 535 37,000  Level FlightAware ADS-B
Tue 01:14:54 PM 36.6110 -114.0120 61° Northeast 463 533 37,000  Level FlightAware ADS-B
Tue 01:15:26 PM 36.6450 -113.9380 60° Northeast 463 533 37,000  Level FlightAware ADS-B
Tue 01:16:02 PM 36.6820 -113.8560 61° Northeast 463 533 37,000  Level FlightAware ADS-B
Tue 01:16:36 PM 36.7190 -113.7750 60° Northeast 464 534 37,000  Level FlightAware ADS-B
Tue 01:17:12 PM 36.7560 -113.6930 61° Northeast 464 534 37,000  Level FlightAware ADS-B
Tue 01:17:45 PM 36.7880 -113.6220 61° Northeast 464 534 37,000  Level FlightAware ADS-B
Tue 01:18:20 PM 36.8280 -113.5340 60° Northeast 464 534 37,000  Level FlightAware ADS-B
Tue 01:18:56 PM 36.8650 -113.4500 61° Northeast 464 534 37,000  Level FlightAware ADS-B
Tue 01:19:30 PM 36.9020 -113.3680 61° Northeast 465 535 37,000  Level FlightAware ADS-B
Tue 01:20:06 PM 36.9390 -113.2850 61° Northeast 465 535 37,000  Level FlightAware ADS-B
Tue 01:20:42 PM 36.9770 -113.2000 61° Northeast 465 535 37,000  Level FlightAware ADS-B
Tue 01:21:14 PM 37.0120 -113.1260 59° Northeast 467 537 37,000  Level FlightAware ADS-B
Tue 01:21:52 PM 37.0580 -113.0440 55° Northeast 466 536 37,000  Level FlightAware ADS-B
Tue 01:22:24 PM 37.0970 -112.9720 56° Northeast 465 535 37,000  Level FlightAware ADS-B
Tue 01:23:00 PM 37.1400 -112.8940 55° Northeast 465 535 37,000  Level FlightAware ADS-B
Tue 01:23:38 PM 37.1880 -112.8070 55° Northeast 464 534 37,000  Level FlightAware ADS-B
Tue 01:24:23 PM 37.2380 -112.7170 55° Northeast 463 533 37,000  Level FlightAware ADS-B
Tue 01:25:01 PM 37.2780 -112.6460 55° Northeast 463 533 37,000  Level FlightAware ADS-B
Tue 01:25:37 PM 37.3150 -112.5780 56° Northeast 463 533 37,000  Level FlightAware ADS-B
Tue 01:26:13 PM 37.3530 -112.5110 54° Northeast 463 533 37,000  Level FlightAware ADS-B
Tue 01:26:49 PM 37.3900 -112.4430 56° Northeast 463 533 37,000  Level FlightAware ADS-B
Tue 01:27:25 PM 37.4280 -112.3750 55° Northeast 463 533 37,000  Level FlightAware ADS-B
Tue 01:28:01 PM 37.4660 -112.3080 54° Northeast 463 533 37,000  Level FlightAware ADS-B
Tue 01:28:38 PM 37.5040 -112.2380 56° Northeast 463 533 37,000  Level FlightAware ADS-B
Tue 01:29:16 PM 37.5440 -112.1670 55° Northeast 463 533 37,000  Level FlightAware ADS-B
Tue 01:29:50 PM 37.5790 -112.1030 55° Northeast 463 533 37,000  Level FlightAware ADS-B
Tue 01:30:26 PM 37.6170 -112.0350 55° Northeast 463 533 37,000  Level FlightAware ADS-B
Tue 01:31:02 PM 37.6550 -111.9670 55° Northeast 463 533 37,000  Level FlightAware ADS-B
Tue 01:31:39 PM 37.6930 -111.8980 55° Northeast 463 533 37,000  Level FlightAware ADS-B
Tue 01:32:15 PM 37.7310 -111.8300 55° Northeast 463 533 37,000  Level FlightAware ADS-B
Tue 01:32:51 PM 37.7680 -111.7620 55° Northeast 463 533 37,000  Level FlightAware ADS-B
Tue 01:33:27 PM 37.8060 -111.6940 55° Northeast 463 533 37,000  Level FlightAware ADS-B
Tue 01:36:26 PM 38.0380 -111.0470 65° Northeast 458 527 37,000  Level FlightAware ADS-B
Tue 01:37:02 PM 38.0700 -110.9710 62° Northeast 457 526 37,000  Level FlightAware ADS-B
Tue 01:37:35 PM 38.1050 -110.8860 62° Northeast 457 526 37,000  Level FlightAware ADS-B
Tue 01:38:19 PM 38.1450 -110.7880 63° Northeast 457 526 37,000  Level FlightAware ADS-B
Tue 01:38:52 PM 38.1800 -110.7050 62° Northeast 455 524 37,000  Level FlightAware ADS-B
Tue 01:39:30 PM 38.2130 -110.6250 62° Northeast 455 524 37,000  Level FlightAware ADS-B
Tue 01:40:12 PM 38.2530 -110.5270 63° Northeast 455 524 37,000  Level FlightAware ADS-B
Tue 01:40:52 PM 38.2930 -110.4280 63° Northeast 456 525 37,000  Level FlightAware ADS-B
Tue 01:41:33 PM 38.3330 -110.3300 62° Northeast 457 526 37,000  Level FlightAware ADS-B
Tue 01:42:06 PM 38.3690 -110.2440 62° Northeast 458 527 37,000  Level FlightAware ADS-B
Tue 01:42:43 PM 38.4050 -110.1560 62° Northeast 459 528 37,000  Level FlightAware ADS-B
Tue 01:43:20 PM 38.4420 -110.0630 63° Northeast 459 528 37,000  Level FlightAware ADS-B
Tue 01:43:53 PM 38.4740 -109.9840 63° Northeast 460 529 37,000  Level FlightAware ADS-B
Tue 01:44:05 PM 38.4870 -109.9560 59° Northeast 464 534 37,000  Level FlightAware ADS-B
Tue 01:44:42 PM 38.5330 -109.8970 45° Northeast 464 534 37,000  Level FlightAware ADS-B
Tue 01:45:24 PM 38.5940 -109.8090 48° Northeast 458 527 37,000  Level FlightAware ADS-B
Tue 01:45:53 PM 38.6290 -109.7280 61° Northeast 457 526 37,000  Level FlightAware ADS-B
Tue 01:46:27 PM 38.6610 -109.6500 62° Northeast 457 526 37,000  Level FlightAware ADS-B
Tue 01:47:04 PM 38.6920 -109.5660 65° Northeast 457 526 37,000  Level FlightAware ADS-B
Tue 01:47:34 PM 38.7190 -109.4900 65° Northeast 456 525 37,000  Level FlightAware ADS-B
Tue 01:48:12 PM 38.7540 -109.3890 66° East 456 525 37,000  Level FlightAware ADS-B
Tue 01:48:43 PM 38.7770 -109.3260 65° Northeast 455 524 37,000  Level FlightAware ADS-B
Tue 01:49:20 PM 38.8130 -109.2220 66° East 456 525 37,000  Level FlightAware ADS-B
Tue 01:49:59 PM 38.8470 -109.1270 65° Northeast 456 525 37,000  Level FlightAware ADS-B
Tue 01:50:29 PM 38.8740 -109.0510 65° Northeast 457 526 37,000  Level FlightAware ADS-B
Tue 01:51:07 PM 38.9070 -108.9570 66° East 457 526 37,000  Level FlightAware ADS-B
Tue 01:51:42 PM 38.9340 -108.8790 66° East 457 526 37,000  Level FlightAware ADS-B
Tue 01:52:16 PM 38.9660 -108.7870 66° East 457 526 37,000  Level FlightAware ADS-B
Tue 01:52:49 PM 38.9910 -108.7150 66° East 457 526 37,000  Level FlightAware ADS-B
Tue 01:53:30 PM 39.0300 -108.6030 66° East 458 527 37,000  Level FlightAware ADS-B
Tue 01:54:11 PM 39.0630 -108.5090 66° East 459 528 37,000  Level FlightAware ADS-B
Tue 01:54:51 PM 39.1000 -108.4010 66° East 461 531 37,000  Level FlightAware ADS-B
Tue 01:55:25 PM 39.1290 -108.3160 66° East 461 531 37,000  Level FlightAware ADS-B
Tue 01:56:01 PM 39.1570 -108.2340 66° East 462 532 37,000  Level FlightAware ADS-B
Tue 01:56:44 PM 39.1960 -108.1200 66° East 461 531 37,000  Level FlightAware ADS-B
Tue 01:57:18 PM 39.2240 -108.0390 66° East 459 528 37,000  Level FlightAware ADS-B
Tue 01:57:55 PM 39.2580 -107.9380 66° East 458 527 37,000  Level FlightAware ADS-B
Tue 01:58:26 PM 39.2840 -107.8610 66° East 458 527 37,000  Level FlightAware ADS-B
Tue 01:59:04 PM 39.3150 -107.7670 67° East 457 526 37,000  Level FlightAware ADS-B
Tue 01:59:36 PM 39.3410 -107.6890 67° East 458 527 37,000  Level FlightAware ADS-B
Tue 02:00:01 PM 39.3640 -107.6220 66° East 460 529 37,000  Level FlightAware ADS-B
Tue 02:00:31 PM 39.3897 -107.5450 67° East 460 529 37,000  Level FlightAware ADS-B
Tue 02:01:02 PM 39.4154 -107.4690 66° East 460 529 37,000  Level FlightAware ADS-B
Tue 02:01:33 PM 39.4418 -107.3880 67° East 460 529 37,000  Level FlightAware ADS-B
Tue 02:02:04 PM 39.4670 -107.3120 67° East 459 528 37,000  Level FlightAware ADS-B
Tue 02:02:35 PM 39.4927 -107.2340 67° East 458 527 37,000  Level FlightAware ADS-B
Tue 02:03:05 PM 39.5177 -107.1590 67° East 457 526 37,000  Level FlightAware ADS-B
Tue 02:03:35 PM 39.5426 -107.0830 67° East 457 526 37,000  Level FlightAware ADS-B
Tue 02:04:05 PM 39.5674 -107.0080 67° East 454 522 37,000  Level FlightAware ADS-B
Tue 02:04:35 PM 39.5919 -106.9330 67° East 453 521 37,000  Level FlightAware ADS-B
Tue 02:05:06 PM 39.6169 -106.8560 67° East 452 520 37,000  Level FlightAware ADS-B
Tue 02:05:36 PM 39.6411 -106.7810 67° East 451 519 37,000  Level FlightAware ADS-B
Tue 02:06:06 PM 39.6657 -106.7060 67° East 451 519 37,000  Level FlightAware ADS-B
Tue 02:06:36 PM 39.6899 -106.6310 67° East 451 519 37,000  Level FlightAware ADS-B
Tue 02:07:06 PM 39.7139 -106.5560 67° East 450 518 37,000  Level FlightAware ADS-B
Tue 02:07:37 PM 39.7383 -106.4810 67° East 450 518 37,000  Level FlightAware ADS-B
Tue 02:08:07 PM 39.7628 -106.4040 67° East 449 517 37,000  Level FlightAware ADS-B
Tue 02:08:38 PM 39.7867 -106.3300 67° East 448 516 37,000  Level FlightAware ADS-B
Tue 02:09:08 PM 39.8105 -106.2550 68° East 447 514 37,000  Level FlightAware ADS-B
Tue 02:09:40 PM 39.8360 -106.1750 67° East 447 514 37,000  Level FlightAware ADS-B
Tue 02:10:10 PM 39.8599 -106.1000 67° East 446 513 37,000  Level FlightAware ADS-B
Tue 02:10:40 PM 39.8833 -106.0250 68° East 446 513 37,000  Level FlightAware ADS-B
Tue 02:11:14 PM 39.9096 -105.9420 68° East 446 513 37,000  Level FlightAware ADS-B
Tue 02:11:44 PM 39.9331 -105.8670 68° East 446 513 37,000  Level FlightAware ADS-B
Tue 02:12:15 PM 39.9572 -105.7910 68° East 447 514 37,000  Level FlightAware ADS-B
Tue 02:12:47 PM 39.9821 -105.7110 68° East 447 514 37,000  Level FlightAware ADS-B
Tue 02:13:18 PM 40.0062 -105.6340 68° East 449 517 37,000  Level FlightAware ADS-B
Tue 02:13:48 PM 40.0294 -105.5590 68° East 449 517 37,000  Level FlightAware ADS-B
Tue 02:14:23 PM 40.0570 -105.4700 68° East 450 518 37,000  Level FlightAware ADS-B
Tue 02:14:54 PM 40.0810 -105.3930 68° East 450 518 37,000  Level FlightAware ADS-B
Tue 02:15:31 PM 40.1096 -105.3000 68° East 450 518 37,000  Level FlightAware ADS-B
Tue 02:16:01 PM 40.1329 -105.2240 68° East 449 517 37,000  Level FlightAware ADS-B
Tue 02:16:32 PM 40.1563 -105.1480 68° East 448 516 37,000  Level FlightAware ADS-B
Tue 02:17:02 PM 40.1793 -105.0720 68° East 446 513 37,000  Level FlightAware ADS-B
Tue 02:17:33 PM 40.2029 -104.9950 68° East 444 511 37,000  Level FlightAware ADS-B
Tue 02:18:03 PM 40.2257 -104.9200 68° East 443 510 37,000  Level FlightAware ADS-B
Tue 02:18:33 PM 40.2484 -104.8450 68° East 442 509 37,000  Level FlightAware ADS-B
Tue 02:19:04 PM 40.2712 -104.7690 69° East 441 507 37,000  Level FlightAware ADS-B
Tue 02:19:34 PM 40.2935 -104.6950 68° East 440 506 37,000  Level FlightAware ADS-B
Tue 02:20:04 PM 40.3160 -104.6200 69° East 440 506 37,000  Level FlightAware ADS-B
Tue 02:20:34 PM 40.3384 -104.5460 68° East 439 505 37,000  Level FlightAware ADS-B
Tue 02:21:04 PM 40.3607 -104.4710 69° East 439 505 37,000  Level FlightAware ADS-B
Tue 02:21:34 PM 40.3828 -104.3970 69° East 439 505 37,000  Level FlightAware ADS-B
Tue 02:22:05 PM 40.4055 -104.3210 69° East 440 506 37,000  Level FlightAware ADS-B
Tue 02:22:35 PM 40.4278 -104.2450 69° East 441 507 37,000  Level FlightAware ADS-B
Tue 02:23:06 PM 40.4504 -104.1680 69° East 441 507 37,000  Level FlightAware ADS-B
Tue 02:23:37 PM 40.4727 -104.0930 69° East 443 510 37,000  Level FlightAware ADS-B
Tue 02:24:12 PM 40.4988 -104.0040 69° East 443 510 37,000  Level FlightAware ADS-B
Tue 02:24:43 PM 40.5191 -103.9270 71° East 445 512 37,000  Level FlightAware ADS-B
Tue 02:25:13 PM 40.5389 -103.8500 71° East 444 511 37,000  Level FlightAware ADS-B
Tue 02:25:43 PM 40.5591 -103.7720 71° East 445 512 37,000  Level FlightAware ADS-B
Tue 02:26:17 PM 40.5814 -103.6850 71° East 445 512 37,000  Level FlightAware ADS-B
Tue 02:26:49 PM 40.6024 -103.6030 71° East 445 512 37,000  Level FlightAware ADS-B
Tue 02:27:20 PM 40.6225 -103.5250 71° East 446 513 37,000  Level FlightAware ADS-B
Tue 02:27:50 PM 40.6422 -103.4480 71° East 446 513 37,000  Level FlightAware ADS-B
Tue 02:28:22 PM 40.6634 -103.3650 71° East 447 514 37,000  Level FlightAware ADS-B
Tue 02:28:53 PM 40.6833 -103.2860 72° East 447 514 37,000  Level FlightAware ADS-B
Tue 02:29:24 PM 40.7038 -103.2050 72° East 447 514 37,000  Level FlightAware ADS-B
Tue 02:29:54 PM 40.7231 -103.1280 72° East 447 514 37,000  Level FlightAware ADS-B
Tue 02:30:24 PM 40.7428 -103.0500 72° East 445 512 37,000  Level FlightAware ADS-B
Tue 02:30:55 PM 40.7623 -102.9720 72° East 443 510 37,000  Level FlightAware ADS-B
Tue 02:31:25 PM 40.7816 -102.8950 72° East 443 510 37,000  Level FlightAware ADS-B
Tue 02:32:18 PM 40.8155 -102.7580 72° East 442 509 37,000  Level FlightAware ADS-B
Tue 02:32:49 PM 40.8346 -102.6800 72° East 441 507 37,000  Level FlightAware ADS-B
Tue 02:33:20 PM 40.8542 -102.6010 72° East 440 506 37,000  Level FlightAware ADS-B
Tue 02:33:50 PM 40.8731 -102.5240 72° East 440 506 37,000  Level FlightAware ADS-B
Tue 02:34:21 PM 40.8922 -102.4460 72° East 440 506 37,000  Level FlightAware ADS-B
Tue 02:34:51 PM 40.9111 -102.3690 72° East 440 506 37,000  Level FlightAware ADS-B
Tue 02:35:23 PM 40.9305 -102.2880 72° East 440 506 37,000  Level FlightAware ADS-B
Tue 02:35:53 PM 40.9494 -102.2100 72° East 440 506 37,000  Level FlightAware ADS-B
Tue 02:36:26 PM 40.9696 -102.1260 72° East 440 506 37,000  Level FlightAware ADS-B
Tue 02:36:56 PM 40.9882 -102.0490 72° East 441 507 37,000  Level FlightAware ADS-B
Tue 02:37:17 PM 41.0010 -101.9960 72° East 441 507 37,000  Level FlightAware ADS-B
Tue 02:37:47 PM 41.0216 -101.9200 70° East 441 507 37,000  Level FlightAware ADS-B
Tue 02:38:18 PM 41.0427 -101.8420 70° East 441 507 37,000  Level FlightAware ADS-B
Tue 02:39:42 PM 41.1002 -101.6280 70° East 442 509 37,000  Level FlightAware ADS-B
Tue 02:40:12 PM 41.1209 -101.5500 71° East 442 509 37,000  Level FlightAware ADS-B
Tue 02:40:43 PM 41.1418 -101.4720 70° East 443 510 37,000  Level FlightAware ADS-B
Tue 02:41:14 PM 41.1629 -101.3920 71° East 443 510 37,000  Level FlightAware ADS-B
Tue 02:41:45 PM 41.1836 -101.3140 71° East 443 510 37,000  Level FlightAware ADS-B
Tue 02:42:16 PM 41.2046 -101.2340 71° East 441 507 37,000  Level FlightAware ADS-B
Tue 02:43:13 PM 41.2369 -101.1156 71° East 440 506 37,000  Level Denver Center
Tue 02:44:15 PM 41.2811 -100.9431 71° East 437 503 37,000  Level Denver Center
Tue 02:45:17 PM 41.3200 -100.7964 71° East 437 503 37,000  Level Denver Center
Tue 02:46:19 PM 41.3644 -100.6250 71° East 438 504 37,000  Level Denver Center
Tue 02:47:21 PM 41.4017 -100.4792 71° East 433 498 37,000  Level Denver Center
Tue 02:48:24 PM 41.4444 -100.3092 71° East 432 497 37,000  Level Denver Center
Tue 02:49:26 PM 41.4789 -100.1608 73° East 434 499 37,000  Level Denver Center
Tue 02:50:40 PM 41.5206 -99.9619 74° East 435 501 37,000  Level Denver Center
Tue 02:51:42 PM 41.5536 -99.8156 73° East 433 498 37,000  Level Denver Center
Tue 02:52:44 PM 41.5889 -99.6578 73° East 431 496 37,000  Level Denver Center
Tue 02:53:46 PM 41.6214 -99.5028 74° East 430 495 37,000  Level Denver Center
Tue 02:54:48 PM 41.6550 -99.3481 74° East 431 496 37,000  Level Denver Center
Tue 02:55:50 PM 41.6944 -99.1611 74° East 432 497 37,000  Level Denver Center
Tue 03:02:01 PM 41.8950 -98.1940 74° East 434 499 37,000  Level FlightAware ADS-B
Tue 03:02:34 PM 41.9120 -98.1080 75° East 433 498 37,000  Level FlightAware ADS-B
Tue 03:03:09 PM 41.9300 -98.0180 75° East 432 497 37,000  Level FlightAware ADS-B
Tue 03:03:49 PM 41.9490 -97.9250 75° East 432 497 37,000  Level FlightAware ADS-B
Tue 03:04:26 PM 41.9650 -97.8430 75° East 432 497 37,000  Level FlightAware ADS-B
Tue 03:05:14 PM 41.9920 -97.7080 75° East 433 498 37,000  Level FlightAware ADS-B
Tue 03:05:50 PM 42.0080 -97.6280 75° East 433 498 37,000  Level FlightAware ADS-B
Tue 03:06:26 PM 42.0240 -97.5490 75° East 433 498 37,000  Level FlightAware ADS-B
Tue 03:06:56 PM 42.0460 -97.4260 76° East 435 501 37,000  Level FlightAware ADS-B
Tue 03:07:41 PM 42.0600 -97.3040 81° East 438 504 37,000  Level FlightAware ADS-B
Tue 03:08:14 PM 42.0700 -97.2170 81° East 437 503 37,000  Level FlightAware ADS-B
Tue 03:08:51 PM 42.0810 -97.1170 82° East 437 503 37,000  Level FlightAware ADS-B
Tue 03:09:29 PM 42.0910 -97.0260 82° East 437 503 37,000  Level FlightAware ADS-B
Tue 03:10:06 PM 42.1010 -96.9410 81° East 437 503 37,000  Level FlightAware ADS-B
Tue 03:10:43 PM 42.1130 -96.8190 82° East 437 503 37,000  Level FlightAware ADS-B
Tue 03:11:18 PM 42.1230 -96.7270 82° East 437 503 37,000  Level FlightAware ADS-B
Tue 03:11:55 PM 42.1340 -96.6200 82° East 438 504 37,000  Level FlightAware ADS-B
Tue 03:12:29 PM 42.1440 -96.5330 81° East 439 505 37,000  Level FlightAware ADS-B
Tue 03:13:11 PM 42.1560 -96.4170 82° East 440 506 37,000  Level FlightAware ADS-B
Tue 03:14:00 PM 42.1700 -96.2820 82° East 439 505 37,000  Level FlightAware ADS-B
Tue 03:14:34 PM 42.1790 -96.1930 82° East 436 502 37,000  Level FlightAware ADS-B
Tue 03:15:09 PM 42.1880 -96.1000 83° East 433 498 37,000  Level FlightAware ADS-B
Tue 03:15:42 PM 42.1970 -96.0100 82° East 433 498 37,000  Level FlightAware ADS-B
Tue 03:16:17 PM 42.2070 -95.9170 82° East 431 496 37,000  Level FlightAware ADS-B
Tue 03:16:54 PM 42.2160 -95.8270 82° East 430 495 37,000  Level FlightAware ADS-B
Tue 03:17:26 PM 42.2240 -95.7430 83° East 431 496 37,000  Level FlightAware ADS-B
Tue 03:18:06 PM 42.2350 -95.6250 83° East 432 497 37,000  Level FlightAware ADS-B
Tue 03:18:39 PM 42.2440 -95.5400 82° East 433 498 37,000  Level FlightAware ADS-B
Tue 03:19:15 PM 42.2530 -95.4430 83° East 433 498 37,000  Level FlightAware ADS-B
Tue 03:19:51 PM 42.2620 -95.3460 83° East 434 499 37,000  Level FlightAware ADS-B
Tue 03:20:22 PM 42.2700 -95.2630 83° East 434 499 37,000  Level FlightAware ADS-B
Tue 03:20:57 PM 42.2780 -95.1720 83° East 434 499 37,000  Level FlightAware ADS-B
Tue 03:21:34 PM 42.2880 -95.0700 82° East 433 498 37,000  Level FlightAware ADS-B
Tue 03:22:10 PM 42.2970 -94.9720 83° East 433 498 37,000  Level FlightAware ADS-B
Tue 03:22:46 PM 42.3050 -94.8760 84° East 432 497 37,000  Level FlightAware ADS-B
Tue 03:23:20 PM 42.3130 -94.7860 83° East 431 496 37,000  Level FlightAware ADS-B
Tue 03:23:52 PM 42.3210 -94.7010 83° East 430 495 37,000  Level FlightAware ADS-B
Tue 03:24:31 PM 42.3300 -94.6000 83° East 429 494 37,000  Level FlightAware ADS-B
Tue 03:25:04 PM 42.3380 -94.5110 83° East 427 491 37,000  Level FlightAware ADS-B
Tue 03:25:40 PM 42.3460 -94.4140 84° East 427 491 37,000  Level FlightAware ADS-B
Tue 03:26:15 PM 42.3530 -94.3270 84° East 426 490 37,000  Level FlightAware ADS-B
Tue 03:26:52 PM 42.3620 -94.2240 83° East 425 489 37,000  Level FlightAware ADS-B
Tue 03:27:24 PM 42.3690 -94.1390 84° East 425 489 37,000  Level FlightAware ADS-B
Tue 03:28:01 PM 42.3770 -94.0480 83° East 424 488 37,000  Level FlightAware ADS-B
Tue 03:28:36 PM 42.3850 -93.9530 83° East 424 488 37,000  Level FlightAware ADS-B
Tue 03:29:09 PM 42.3920 -93.8670 84° East 426 490 37,000  Level FlightAware ADS-B
Tue 03:29:37 PM 42.3980 -93.7900 84° East 427 491 37,000  Level FlightAware ADS-B
Tue 03:30:13 PM 42.4060 -93.6940 84° East 428 493 37,000  Level FlightAware ADS-B
Tue 03:30:49 PM 42.4130 -93.5990 84° East 428 493 37,000  Level FlightAware ADS-B
Tue 03:31:22 PM 42.4200 -93.5090 84° East 429 494 37,000  Level FlightAware ADS-B
Tue 03:31:54 PM 42.4270 -93.4250 84° East 429 494 37,000  Level FlightAware ADS-B
Tue 03:32:33 PM 42.4350 -93.3230 84° East 429 494 37,000  Level FlightAware ADS-B
Tue 03:33:09 PM 42.4420 -93.2250 84° East 430 495 37,000  Level FlightAware ADS-B
Tue 03:33:45 PM 42.4490 -93.1290 84° East 430 495 37,000  Level FlightAware ADS-B
Tue 03:34:20 PM 42.4560 -93.0360 84° East 430 495 37,000  Level FlightAware ADS-B
Tue 03:34:51 PM 42.4620 -92.9520 84° East 429 494 37,000 -261 Level FlightAware ADS-B
Tue 03:35:29 PM 42.4690 -92.8530 84° East 425 489 36,700 -592 Descending FlightAware ADS-B
Tue 03:36:02 PM 42.4760 -92.7640 84° East 425 489 36,300 -706 Descending FlightAware ADS-B
Tue 03:36:37 PM 42.4820 -92.6760 85° East 429 494 35,900 -833 Descending FlightAware ADS-B
Tue 03:37:14 PM 42.4900 -92.5720 84° East 427 491 35,300 -857 Descending FlightAware ADS-B
Tue 03:37:47 PM 42.4950 -92.4860 85° East 426 490 34,900 -794 Descending FlightAware ADS-B
Tue 03:38:22 PM 42.5020 -92.3930 84° East 428 493 34,400 -833 Descending FlightAware ADS-B
Tue 03:38:59 PM 42.5080 -92.2960 85° East 429 494 33,900 -917 Descending FlightAware ADS-B
Tue 03:39:34 PM 42.5150 -92.1990 84° East 430 495 33,300 -627 Descending FlightAware ADS-B
Tue 03:40:06 PM 42.5200 -92.1190 85° East 429 494 33,200 -435 Descending FlightAware ADS-B
Tue 03:40:43 PM 42.5240 -92.0160 87° East 431 496 32,800 -750 Descending FlightAware ADS-B
Tue 03:41:18 PM 42.5250 -91.9240 89° East 432 497 32,300 -930 Descending FlightAware ADS-B
Tue 03:41:54 PM 42.5250 -91.8220 90° East 430 495 31,700 -870 Descending FlightAware ADS-B
Tue 03:42:27 PM 42.5260 -91.7360 89° East 432 497 31,300 -783 Descending FlightAware ADS-B
Tue 03:43:03 PM 42.5260 -91.6410 90° East 435 501 30,800 -904 Descending FlightAware ADS-B
Tue 03:43:40 PM 42.5270 -91.5400 89° East 441 507 30,200 -904 Descending FlightAware ADS-B
Tue 03:44:16 PM 42.5270 -91.4350 90° East 441 507 29,700 -896 Descending FlightAware ADS-B
Tue 03:44:47 PM 42.5270 -91.3510 90° East 442 509 29,200 -882 Descending FlightAware ADS-B
Tue 03:45:24 PM 42.5270 -91.2500 90° East 440 506 28,700 -818 Descending FlightAware ADS-B
Tue 03:45:53 PM 42.5270 -91.1690 90° East 445 512 28,300 -833 Descending FlightAware ADS-B
Tue 03:46:36 PM 42.5270 -91.0460 90° East 448 516 27,700 -917 Descending FlightAware ADS-B
Tue 03:47:05 PM 42.5270 -90.9660 90° East 446 513 27,200 -957 Descending FlightAware ADS-B
Tue 03:47:45 PM 42.5270 -90.8590 90° East 442 509 26,600 -917 Descending FlightAware ADS-B
Tue 03:48:17 PM 42.5270 -90.7680 90° East 440 506 26,100 -870 Descending FlightAware ADS-B
Tue 03:48:54 PM 42.5260 -90.6640 91° East 437 503 25,600 -845 Descending FlightAware ADS-B
Tue 03:49:28 PM 42.5250 -90.5720 91° East 435 501 25,100 -930 Descending FlightAware ADS-B
Tue 03:50:05 PM 42.5240 -90.4740 91° East 437 503 24,500 -943 Descending FlightAware ADS-B
Tue 03:50:38 PM 42.5230 -90.3810 91° East 433 498 24,000 -469 Descending FlightAware ADS-B
Tue 03:51:09 PM 42.5230 -90.3040 90° East 431 496 24,000  Level FlightAware ADS-B
Tue 03:51:50 PM 42.5220 -90.1890 91° East 428 493 24,000  Level FlightAware ADS-B
Tue 03:52:22 PM 42.5210 -90.1040 91° East 426 490 24,000  Level FlightAware ADS-B
Tue 03:53:00 PM 42.5210 -90.0020 90° East 423 487 24,000  Level FlightAware ADS-B
Tue 03:53:36 PM 42.5200 -89.9160 91° East 422 486 24,000  Level FlightAware ADS-B
Tue 03:54:06 PM 42.5190 -89.8310 91° East 421 484 24,000  Level FlightAware ADS-B
Tue 03:54:41 PM 42.5180 -89.7410 91° East 420 483 24,000  Level FlightAware ADS-B
Tue 03:55:17 PM 42.5170 -89.6490 91° East 420 483 24,000 -740 Level FlightAware ADS-B
Tue 03:55:54 PM 42.5150 -89.5480 92° East 413 475 23,100 -2,137 Descending FlightAware ADS-B
Tue 03:56:30 PM 42.5140 -89.4560 91° East 411 473 21,400 -2,294 Descending FlightAware ADS-B
Tue 03:57:02 PM 42.5120 -89.3760 92° East 398 458 20,500 -1,970 Descending FlightAware ADS-B
Tue 03:57:37 PM 42.5110 -89.2880 91° East 392 451 19,200 -1,973 Descending FlightAware ADS-B
Tue 03:58:15 PM 42.5090 -89.2020 92° East 394 453 18,100 -1,865 Descending FlightAware ADS-B
Tue 03:58:51 PM 42.5080 -89.1100 91° East 390 449 16,900 -2,118 Descending FlightAware ADS-B
Tue 03:59:23 PM 42.5080 -89.0310 90° East 383 441 15,700 -2,382 Descending FlightAware ADS-B
Tue 03:59:59 PM 42.5050 -88.9400 93° East 376 433 14,200 -2,055 Descending FlightAware ADS-B
Tue 04:00:36 PM 42.4840 -88.8600 110° East 372 428 13,200 -1,324 Descending FlightAware ADS-B
Tue 04:01:07 PM 42.4640 -88.7940 112° Southeast 365 420 12,700 -1,091 Descending FlightAware ADS-B
Tue 04:01:42 PM 42.4420 -88.7210 112° Southeast 359 413 12,000 -1,286 Descending FlightAware ADS-B
Tue 04:02:17 PM 42.4200 -88.6480 112° Southeast 354 407 11,200 -1,417 Descending FlightAware ADS-B
Tue 04:02:54 PM 42.3980 -88.5740 112° Southeast 353 406 10,300 -1,368 Descending FlightAware ADS-B
Tue 04:03:14 PM 42.3850 -88.5330 113° Southeast 354 407 9,900 -750 Descending FlightAware ADS-B
Tue 04:03:34 PM 42.3730 -88.4920 112° Southeast 351 404 9,800  Descending FlightAware ADS-B
Tue 04:03:50 PM 42.3630 -88.4590 112° Southeast 348 400 9,900 167 Climbing FlightAware ADS-B
Tue 04:04:10 PM 42.3510 -88.4200 113° Southeast 344 396 9,900  Level FlightAware ADS-B
Tue 04:04:30 PM 42.3360 -88.3820 118° Southeast 345 397 9,900  Level FlightAware ADS-B
Tue 04:04:44 PM 42.3220 -88.3580 128° Southeast 347 399 9,900  Level FlightAware ADS-B
Tue 04:04:57 PM 42.3090 -88.3350 127° Southeast 347 399 9,900 -158 Level FlightAware ADS-B
Tue 04:05:22 PM 42.2840 -88.2940 129° Southeast 328 377 9,800 -133 Descending FlightAware ADS-B
Tue 04:05:42 PM 42.2660 -88.2630 128° Southeast 307 353 9,800 -450 Level FlightAware ADS-B
Tue 04:06:02 PM 42.2490 -88.2350 129° Southeast 295 339 9,500 -968 Descending FlightAware ADS-B
Tue 04:06:13 PM 42.2380 -88.2180 131° Southeast 290 334 9,300 -1,167 Descending FlightAware ADS-B
Tue 04:06:38 PM 42.2190 -88.1850 128° Southeast 284 327 8,800 -1,304 Descending FlightAware ADS-B
Tue 04:06:59 PM 42.2000 -88.1550 131° Southeast 281 323 8,300 -1,333 Descending FlightAware ADS-B
Tue 04:07:14 PM 42.1870 -88.1370 134° Southeast 278 320 8,000 -1,371 Descending FlightAware ADS-B
Tue 04:07:34 PM 42.1680 -88.1150 139° Southeast 277 319 7,500 -1,500 Descending FlightAware ADS-B
Tue 04:07:46 PM 42.1560 -88.1010 139° Southeast 278 320 7,200 -1,125 Descending FlightAware ADS-B
Tue 04:08:06 PM 42.1370 -88.0790 139° Southeast 275 316 6,900 -409 Descending FlightAware ADS-B
Tue 04:08:30 PM 42.1140 -88.0530 140° Southeast 272 313 6,900  Level FlightAware ADS-B
Tue 04:08:38 PM 42.1070 -88.0420 131° Southeast 272 313 6,900  Level FlightAware ADS-B
Tue 04:08:58 PM 42.0940 -88.0120 120° Southeast 275 316 6,900  Level FlightAware ADS-B
Tue 04:09:09 PM 42.0920 -87.9940 99° East 277 319 6,900  Level FlightAware ADS-B
Tue 04:09:32 PM 42.0920 -87.9580 90° East 277 319 6,900 -140 Level FlightAware ADS-B
Tue 04:09:52 PM 42.0920 -87.9200 90° East 273 314 6,800  Descending FlightAware ADS-B
Tue 04:10:17 PM 42.0920 -87.8850 90° East 268 308 6,900 120 Climbing FlightAware ADS-B
Tue 04:10:42 PM 42.0920 -87.8460 90° East 243 280 6,900  Level FlightAware ADS-B
Tue 04:11:02 PM 42.0920 -87.8140 90° East 241 277 6,900 -818 Level FlightAware ADS-B
Tue 04:11:26 PM 42.0920 -87.7780 90° East 237 273 6,300 -1,636 Descending FlightAware ADS-B
Tue 04:11:46 PM 42.0920 -87.7480 90° East 234 269 5,700 -1,875 Descending FlightAware ADS-B
Tue 04:11:58 PM 42.0920 -87.7310 90° East 232 267 5,300 -1,714 Descending FlightAware ADS-B
Tue 04:12:14 PM 42.0920 -87.7070 90° East 232 267 4,900 -1,421 Descending FlightAware ADS-B
Tue 04:12:36 PM 42.0920 -87.6760 90° East 229 264 4,400 -1,412 Descending FlightAware ADS-B
Tue 04:12:48 PM 42.0900 -87.6590 99° East 223 257 4,100 -1,500 Descending FlightAware ADS-B
Tue 04:12:56 PM 42.0860 -87.6490 118° Southeast 219 252 3,900 -1,059 Descending FlightAware ADS-B
Tue 04:13:05 PM 42.0820 -87.6430 132° Southeast 214 246 3,800 -923 Descending FlightAware ADS-B
Tue 04:13:09 PM 42.0780 -87.6400 151° Southeast 211 243 3,700 -1,000 Descending FlightAware ADS-B
Tue 04:13:17 PM 42.0730 -87.6370 156° South 207 238 3,600 -923 Descending FlightAware ADS-B
Tue 04:13:22 PM 42.0680 -87.6370 180° South 203 234 3,500 -1,778 Descending FlightAware ADS-B
Tue 04:13:44 PM 42.0480 -87.6510 207° Southwest 197 227 2,800 -1,615 Descending FlightAware ADS-B
Tue 04:13:48 PM 42.0470 -87.6550 251° West 197 227 2,800 -818 Level FlightAware ADS-B
Tue 04:14:06 PM 42.0410 -87.6760 249° West 197 227 2,500 -789 Descending FlightAware ADS-B
Tue 04:14:26 PM 42.0340 -87.6980 247° West 196 226 2,300 -571 Descending FlightAware ADS-B
Tue 04:14:48 PM 42.0260 -87.7210 245° Southwest 190 219 2,100 -450 Descending FlightAware ADS-B
Tue 04:15:06 PM 42.0210 -87.7400 250° West 176 203 2,000  Descending FlightAware ADS-B
Tue 04:15:28 PM 42.0130 -87.7630 245° Southwest 168 193 2,100  Climbing FlightAware ADS-B
Tue 04:15:52 PM 42.0050 -87.7860 245° Southwest 168 193 2,000 -333 Descending FlightAware ADS-B
Tue 04:16:04 PM 42.0030 -87.7990 258° West 170 196 1,900 -600 Descending FlightAware ADS-B
Tue 04:16:22 PM 42.0030 -87.8170 270° West 160 184 1,700 -714 Descending FlightAware ADS-B
Tue 04:16:46 PM 42.0030 -87.8390 270° West 151 174 1,400 -857 Descending FlightAware ADS-B
Tue 04:17:04 PM 42.0030 -87.8560 270° West 145 167 1,100 -857 Descending FlightAware ADS-B
Tue 04:17:28 PM 42.0030 -87.8790 270° West 146 168 800 -667 Descending FlightAware ADS-B
Tue 04:17:49 PM 42.0030 -87.8960 270° West 147 169 600 -571 Descending FlightAware ADS-B
Tue 04:18:11 PM 42.0030 -87.9140 270° West 98 113 -1,636 Descending FlightAware ADS-B
Tue 04:18:38 PM 42.0030 -87.9280 270° West 98 113  Level FlightAware ADS-B

Login

Don't have an account? Register now (free) for customized features, flight alerts, and more!